createdAt,value
2018-02-12T00:00:20.439Z,87.23
2018-02-12T00:02:49.636Z,89.93
2018-02-12T00:05:18.770Z,83.87
2018-02-12T00:07:47.901Z,83.57
2018-02-12T00:10:17.077Z,89.43
2018-02-12T00:12:46.224Z,88.10
2018-02-12T00:15:15.360Z,85.10
2018-02-12T00:17:44.525Z,81.87
2018-02-12T00:20:13.705Z,85.93
2018-02-12T00:22:42.846Z,82.70
2018-02-12T00:25:12.117Z,82.57
2018-02-12T00:27:41.311Z,82.87
2018-02-12T00:30:10.430Z,83.30
2018-02-12T00:32:39.579Z,81.47
2018-02-12T00:35:09.085Z,92.57
2018-02-12T00:37:38.241Z,83.47
2018-02-12T00:40:07.445Z,84.83
2018-02-12T00:42:36.922Z,83.40
2018-02-12T00:45:06.064Z,84.53
2018-02-12T00:47:35.199Z,86.53
2018-02-12T00:50:04.362Z,80.57
2018-02-12T00:52:33.604Z,88.47
2018-02-12T00:55:02.777Z,86.10
2018-02-12T00:57:31.945Z,87.37
2018-02-12T01:00:01.109Z,83.97
2018-02-12T01:02:30.250Z,82.37
2018-02-12T01:04:59.394Z,85.87
2018-02-12T01:07:28.597Z,87.20
2018-02-12T01:09:57.733Z,88.00
2018-02-12T01:12:26.901Z,83.47
2018-02-12T01:14:56.063Z,84.00
2018-02-12T01:17:25.215Z,84.20
2018-02-12T01:19:54.385Z,82.60
2018-02-12T01:22:23.516Z,84.37
2018-02-12T01:24:52.653Z,88.07
2018-02-12T01:27:21.829Z,91.83
2018-02-12T01:29:50.981Z,86.30
2018-02-12T01:32:20.113Z,83.43
2018-02-12T01:34:49.268Z,89.50
2018-02-12T01:37:18.441Z,84.10
2018-02-12T01:39:47.645Z,90.13
2018-02-12T01:42:16.792Z,83.30
2018-02-12T01:44:45.929Z,85.47
2018-02-12T01:47:15.110Z,87.10
2018-02-12T01:49:44.248Z,82.10
2018-02-12T01:52:13.380Z,84.93
2018-02-12T01:54:42.741Z,84.40
2018-02-12T01:57:11.873Z,83.63
2018-02-12T01:59:41.014Z,81.47
2018-02-12T02:02:10.525Z,88.40
2018-02-12T02:04:39.661Z,81.13
2018-02-12T02:07:08.798Z,83.83
2018-02-12T02:09:37.964Z,83.73
2018-02-12T02:12:07.102Z,87.93
2018-02-12T02:14:36.242Z,83.80
2018-02-12T02:17:05.401Z,84.60
2018-02-12T02:19:34.555Z,83.70
2018-02-12T02:22:03.711Z,87.20
2018-02-12T02:24:32.876Z,87.70
2018-02-12T02:27:02.017Z,85.40
2018-02-12T02:29:31.156Z,86.20
2018-02-12T02:32:00.326Z,83.10
2018-02-12T02:34:29.461Z,82.93
2018-02-12T02:36:58.610Z,81.10
2018-02-12T02:39:27.768Z,83.27
2018-02-12T02:41:56.913Z,83.73
2018-02-12T02:44:26.050Z,83.20
2018-02-12T02:46:55.213Z,86.60
2018-02-12T02:49:24.353Z,84.50
2018-02-12T02:51:53.485Z,82.10
2018-02-12T02:54:22.950Z,80.90
2018-02-12T02:56:52.088Z,83.80
2018-02-12T02:59:21.232Z,88.23
2018-02-12T03:01:51.294Z,85.07
2018-02-12T03:04:20.442Z,88.00
2018-02-12T03:06:49.654Z,85.57
2018-02-12T03:09:18.765Z,83.93
2018-02-12T03:11:47.922Z,96.67
2018-02-12T03:14:17.058Z,84.17
2018-02-12T03:16:46.212Z,81.67
2018-02-12T03:19:15.384Z,81.37
2018-02-12T03:21:44.517Z,83.70
2018-02-12T03:24:13.644Z,81.00
2018-02-12T03:26:42.801Z,80.90
2018-02-12T03:29:11.935Z,86.20
2018-02-12T03:31:41.066Z,80.67
2018-02-12T03:34:10.243Z,85.80
2018-02-12T03:36:39.394Z,81.00
2018-02-12T03:39:08.543Z,87.80
2018-02-12T03:41:37.701Z,81.20
2018-02-12T03:44:06.850Z,81.87
2018-02-12T03:46:35.990Z,82.50
2018-02-12T03:49:05.189Z,80.57
2018-02-12T03:51:34.599Z,81.70
2018-02-12T03:54:03.733Z,82.77
2018-02-12T03:56:32.904Z,82.20
2018-02-12T03:59:02.052Z,83.47
2018-02-12T04:01:31.182Z,82.67
2018-02-12T04:04:00.365Z,85.30
2018-02-12T04:06:29.503Z,86.20
2018-02-12T04:08:58.994Z,85.87
2018-02-12T04:11:28.125Z,83.90
2018-02-12T04:13:57.325Z,82.53
2018-02-12T04:16:26.493Z,81.37
2018-02-12T04:18:55.637Z,89.57
2018-02-12T04:21:24.769Z,83.60
2018-02-12T04:23:53.935Z,84.53
2018-02-12T04:26:23.074Z,82.20
2018-02-12T04:28:52.209Z,86.33
2018-02-12T04:31:21.426Z,87.90
2018-02-12T04:33:50.523Z,82.50
2018-02-12T04:36:19.657Z,82.77
2018-02-12T04:38:48.811Z,83.80
2018-02-12T04:41:17.960Z,85.27
2018-02-12T04:43:47.094Z,84.63
2018-02-12T04:46:16.283Z,84.57
2018-02-12T04:48:45.423Z,82.90
2018-02-12T04:51:14.548Z,86.97
2018-02-12T04:53:43.733Z,88.37
2018-02-12T04:56:12.875Z,85.60
2018-02-12T04:58:42.022Z,82.20
2018-02-12T05:01:11.213Z,83.27
2018-02-12T05:03:40.361Z,82.10
2018-02-12T05:06:09.491Z,86.43
2018-02-12T05:08:38.653Z,83.93
2018-02-12T05:11:07.817Z,87.43
2018-02-12T05:13:36.958Z,86.70
2018-02-12T05:16:06.086Z,82.83
2018-02-12T05:18:35.256Z,81.77
2018-02-12T05:21:04.397Z,83.30
2018-02-12T05:23:33.542Z,84.07
2018-02-12T05:26:03.036Z,84.40
2018-02-12T05:28:32.168Z,82.80
2018-02-12T05:31:01.315Z,83.00
2018-02-12T05:33:30.468Z,83.57
2018-02-12T05:35:59.598Z,83.30
2018-02-12T05:38:28.737Z,88.77
2018-02-12T05:40:57.905Z,80.50
2018-02-12T05:43:27.036Z,85.83
2018-02-12T05:45:56.172Z,83.93
2018-02-12T05:48:25.335Z,83.30
2018-02-12T05:50:54.474Z,89.83
2018-02-12T05:53:23.625Z,83.47
2018-02-12T05:55:52.809Z,83.10
2018-02-12T05:58:21.937Z,82.87
2018-02-12T06:00:51.081Z,87.10
2018-02-12T06:03:20.278Z,90.50
2018-02-12T06:05:49.468Z,81.93
2018-02-12T06:08:18.613Z,83.13
2018-02-12T06:10:47.793Z,84.43
2018-02-12T06:13:16.930Z,81.80
2018-02-12T06:15:46.089Z,83.37
2018-02-12T06:18:15.244Z,82.03
2018-02-12T06:20:44.384Z,86.40
2018-02-12T06:23:13.869Z,83.10
2018-02-12T06:25:43.017Z,82.77
2018-02-12T06:28:12.142Z,80.47
2018-02-12T06:30:41.334Z,82.80
2018-02-12T06:33:10.514Z,85.23
2018-02-12T06:35:39.677Z,80.47
2018-02-12T06:38:08.817Z,81.07
2018-02-12T06:40:38.008Z,83.43
2018-02-12T06:43:07.151Z,81.30
2018-02-12T06:45:36.296Z,81.40
2018-02-12T06:48:05.480Z,82.70
2018-02-12T06:50:34.622Z,80.17
2018-02-12T06:53:03.783Z,86.87
2018-02-12T06:55:32.940Z,83.93
2018-02-12T06:58:02.120Z,80.00
2018-02-12T07:00:31.276Z,85.43
2018-02-12T07:03:00.414Z,82.07
2018-02-12T07:05:29.560Z,81.50
2018-02-12T07:07:58.737Z,82.67
2018-02-12T07:10:27.879Z,81.20
2018-02-12T07:12:57.029Z,81.17
2018-02-12T07:15:26.221Z,81.87
2018-02-12T07:17:55.363Z,86.37
2018-02-12T07:20:24.615Z,84.90
2018-02-12T07:22:53.788Z,83.53
2018-02-12T07:25:22.934Z,81.20
2018-02-12T07:27:52.101Z,82.73
2018-02-12T07:30:21.254Z,85.27
2018-02-12T07:32:50.397Z,89.50
2018-02-12T07:35:19.564Z,82.43
2018-02-12T07:37:48.704Z,82.97
2018-02-12T07:40:17.869Z,82.47
2018-02-12T07:42:47.025Z,84.80
2018-02-12T07:45:16.166Z,83.47
2018-02-12T07:47:45.333Z,82.63
2018-02-12T07:50:14.481Z,81.37
2018-02-12T07:52:43.631Z,82.87
2018-02-12T07:55:12.809Z,90.60
2018-02-12T07:57:41.944Z,82.63
2018-02-12T08:00:11.462Z,83.90
2018-02-12T08:02:40.630Z,86.83
2018-02-12T08:05:09.769Z,80.90
2018-02-12T08:07:38.957Z,82.50
2018-02-12T08:10:08.233Z,87.30
2018-02-12T08:12:37.362Z,80.93
2018-02-12T08:15:06.519Z,79.87
2018-02-12T08:17:35.708Z,84.07
2018-02-12T08:20:04.849Z,81.87
2018-02-12T08:22:33.994Z,81.10
2018-02-12T08:25:03.177Z,83.50
2018-02-12T08:27:32.370Z,83.13
2018-02-12T08:30:01.509Z,80.93
2018-02-12T08:32:30.650Z,80.90
2018-02-12T08:34:59.809Z,79.30
2018-02-12T08:37:28.954Z,87.47
2018-02-12T08:39:58.086Z,80.53
2018-02-12T08:42:27.263Z,83.10
2018-02-12T08:44:56.741Z,81.67
2018-02-12T08:47:25.882Z,82.57
2018-02-12T08:49:55.031Z,83.33
2018-02-12T08:52:24.191Z,82.47
2018-02-12T08:54:53.339Z,85.53
2018-02-12T08:57:22.471Z,83.70
2018-02-12T08:59:51.656Z,86.37
2018-02-12T09:02:20.805Z,86.33
2018-02-12T09:04:49.942Z,83.07
2018-02-12T09:07:19.108Z,87.17
2018-02-12T09:09:48.251Z,83.67
2018-02-12T09:12:17.397Z,86.10
2018-02-12T09:14:46.557Z,84.20
2018-02-12T09:17:15.694Z,80.90
2018-02-12T09:19:44.821Z,83.20
2018-02-12T09:22:14.013Z,84.07
2018-02-12T09:24:43.159Z,84.67
2018-02-12T09:27:12.296Z,83.77
2018-02-12T09:29:41.855Z,84.10
2018-02-12T09:32:11.001Z,82.80
2018-02-12T09:34:40.145Z,83.80
2018-02-12T09:37:09.353Z,84.40
2018-02-12T09:39:38.481Z,85.67
2018-02-12T09:42:07.674Z,83.47
2018-02-12T09:44:36.820Z,85.10
2018-02-12T09:47:05.966Z,90.13
2018-02-12T09:49:35.137Z,86.17
2018-02-12T09:52:04.274Z,87.50
2018-02-12T09:54:33.413Z,84.73
2018-02-12T09:57:02.570Z,87.10
2018-02-12T09:59:31.713Z,173.27
2018-02-12T10:02:00.855Z,85.17
2018-02-12T10:04:30.038Z,87.10
2018-02-12T10:06:59.188Z,89.77
2018-02-12T10:09:28.340Z,86.07
2018-02-12T10:11:57.510Z,84.70
2018-02-12T10:14:26.650Z,88.00
2018-02-12T10:16:55.780Z,85.20
2018-02-12T10:19:24.945Z,88.27
2018-02-12T10:21:54.546Z,85.43
2018-02-12T10:24:23.677Z,87.53
2018-02-12T10:26:52.847Z,83.80
2018-02-12T10:29:22.058Z,91.83
2018-02-12T10:31:51.202Z,85.10
2018-02-12T10:34:20.333Z,88.93
2018-02-12T10:36:49.502Z,84.77
2018-02-12T10:39:18.637Z,90.07
2018-02-12T10:41:47.810Z,90.80
2018-02-12T10:44:16.942Z,93.60
2018-02-12T10:46:46.089Z,91.47
2018-02-12T10:49:15.253Z,92.90
2018-02-12T10:51:44.398Z,97.20
2018-02-12T10:54:13.537Z,92.90
2018-02-12T10:56:42.755Z,94.40
2018-02-12T10:59:11.893Z,91.97
2018-02-12T11:01:41.356Z,97.20
2018-02-12T11:04:10.506Z,95.77
2018-02-12T11:06:39.653Z,233.53
2018-02-12T11:09:08.892Z,92.73
2018-02-12T11:11:38.043Z,92.07
2018-02-12T11:14:07.186Z,93.23
2018-02-12T11:16:36.354Z,92.07
2018-02-12T11:19:05.505Z,92.03
2018-02-12T11:21:34.637Z,94.73
2018-02-12T11:24:03.815Z,94.77
2018-02-12T11:26:32.956Z,92.47
2018-02-12T11:29:02.130Z,100.23
2018-02-12T11:31:31.289Z,94.00
2018-02-12T11:34:00.435Z,94.70
2018-02-12T11:36:29.631Z,89.87
2018-02-12T11:38:58.801Z,94.97
2018-02-12T11:41:27.984Z,93.17
2018-02-12T11:43:57.138Z,91.27
2018-02-12T11:46:26.277Z,92.77
2018-02-12T11:48:55.458Z,94.27
2018-02-12T11:51:24.596Z,89.73
2018-02-12T11:53:53.747Z,95.10
2018-02-12T11:56:22.976Z,95.60
2018-02-12T11:58:52.164Z,102.07
2018-02-12T12:01:21.304Z,99.43
2018-02-12T12:03:50.484Z,103.00
2018-02-12T12:06:19.653Z,101.43
2018-02-12T12:08:48.801Z,101.07
2018-02-12T12:11:17.942Z,99.90
2018-02-12T12:13:47.130Z,97.83
2018-02-12T12:16:16.297Z,102.43
2018-02-12T12:18:45.445Z,98.60
2018-02-12T12:21:14.589Z,101.27
2018-02-12T12:23:43.789Z,101.40
2018-02-12T12:26:12.953Z,104.27
2018-02-12T12:28:42.090Z,114.07
2018-02-12T12:31:11.292Z,100.17
2018-02-12T12:33:40.417Z,92.63
2018-02-12T12:36:09.565Z,102.40
2018-02-12T12:38:38.700Z,93.77
2018-02-12T12:41:07.843Z,94.17
2018-02-12T12:43:37.025Z,90.80
2018-02-12T12:46:06.206Z,87.80
2018-02-12T12:48:35.353Z,88.77
2018-02-12T12:51:04.497Z,93.80
2018-02-12T12:53:33.657Z,91.80
2018-02-12T12:56:02.799Z,90.67
2018-02-12T12:58:31.974Z,93.57
2018-02-12T13:01:01.116Z,90.47
2018-02-12T13:03:30.247Z,92.70
2018-02-12T13:05:59.508Z,91.20
2018-02-12T13:08:28.655Z,92.93
2018-02-12T13:10:57.794Z,89.27
2018-02-12T13:13:26.981Z,89.47
2018-02-12T13:15:56.114Z,90.47
2018-02-12T13:18:25.255Z,95.40
2018-02-12T13:20:54.417Z,82.40
2018-02-12T13:23:23.561Z,83.10
2018-02-12T13:25:52.704Z,75.47
2018-02-12T13:28:21.871Z,83.50
2018-02-12T13:30:51.003Z,76.60
2018-02-12T13:33:20.198Z,84.10
2018-02-12T13:35:49.321Z,82.60
2018-02-12T13:38:18.473Z,133.10
2018-02-12T13:40:47.643Z,253.87
2018-02-12T13:43:16.796Z,225.97
2018-02-12T13:45:45.967Z,193.67
2018-02-12T13:48:15.264Z,158.10
2018-02-12T13:50:44.413Z,116.40
2018-02-12T13:53:13.573Z,107.67
2018-02-12T13:55:42.789Z,122.07
2018-02-12T13:58:11.921Z,111.73
2018-02-12T14:00:41.069Z,113.90
2018-02-12T14:03:10.242Z,103.90
2018-02-12T14:05:39.381Z,104.83
2018-02-12T14:08:08.543Z,109.23
2018-02-12T14:10:37.715Z,105.63
2018-02-12T14:13:06.860Z,105.80
2018-02-12T14:15:36.010Z,101.80
2018-02-12T14:18:05.192Z,106.87
2018-02-12T14:20:34.355Z,109.60
2018-02-12T14:23:03.510Z,99.90
2018-02-12T14:25:32.729Z,104.10
2018-02-12T14:28:01.892Z,106.80
2018-02-12T14:30:31.679Z,130.13
2018-02-12T14:33:00.833Z,102.97
2018-02-12T14:35:29.973Z,105.90
2018-02-12T14:37:59.117Z,98.13
2018-02-12T14:40:28.298Z,93.60
2018-02-12T14:42:57.433Z,93.67
2018-02-12T14:45:26.614Z,93.70
2018-02-12T14:47:55.833Z,94.63
2018-02-12T14:50:25.037Z,92.87
2018-02-12T14:52:54.242Z,91.57
2018-02-12T14:55:23.379Z,89.80
2018-02-12T14:57:52.513Z,92.83
2018-02-12T15:00:21.676Z,90.37
2018-02-12T15:02:50.813Z,90.70
2018-02-12T15:05:19.952Z,90.10
2018-02-12T15:07:49.145Z,93.40
2018-02-12T15:10:18.316Z,109.83
2018-02-12T15:12:47.493Z,92.57
2018-02-12T15:15:16.652Z,92.37
2018-02-12T15:17:45.792Z,91.50
2018-02-12T15:20:15.456Z,101.13
2018-02-12T15:22:44.599Z,116.03
2018-02-12T15:25:13.741Z,88.27
2018-02-12T15:27:42.917Z,92.30
2018-02-12T15:30:12.064Z,85.73
2018-02-12T15:32:41.216Z,87.53
2018-02-12T15:35:10.723Z,88.60
2018-02-12T15:37:39.868Z,84.37
2018-02-12T15:40:09.005Z,83.00
2018-02-12T15:42:38.177Z,116.50
2018-02-12T15:45:07.324Z,85.33
2018-02-12T15:47:36.481Z,123.43
2018-02-12T15:50:05.665Z,119.17
2018-02-12T15:52:34.799Z,112.23
2018-02-12T15:55:03.942Z,83.00
2018-02-12T15:57:33.113Z,81.50
2018-02-12T16:00:02.276Z,80.60
2018-02-12T16:02:31.529Z,83.60
2018-02-12T16:05:00.669Z,82.57
2018-02-12T16:07:29.806Z,83.00
2018-02-12T16:09:58.959Z,84.30
2018-02-12T16:12:28.106Z,83.30
2018-02-12T16:14:57.253Z,83.97
2018-02-12T16:17:26.441Z,80.60
2018-02-12T16:19:55.589Z,83.07
2018-02-12T16:22:24.721Z,84.27
2018-02-12T16:24:53.906Z,83.80
2018-02-12T16:27:23.064Z,85.50
2018-02-12T16:29:52.217Z,87.17
2018-02-12T16:32:21.362Z,87.00
2018-02-12T16:34:50.500Z,89.00
2018-02-12T16:37:19.672Z,96.20
2018-02-12T16:39:48.814Z,99.87
2018-02-12T16:42:17.957Z,89.90
2018-02-12T16:44:47.154Z,92.60
2018-02-12T16:47:16.305Z,90.47
2018-02-12T16:49:45.468Z,100.20
2018-02-12T16:52:14.625Z,95.00
2018-02-12T16:57:06.026Z,94.60
2018-02-12T16:59:35.165Z,95.87
2018-02-12T17:02:04.319Z,96.97
2018-02-12T17:04:33.562Z,92.87
2018-02-12T17:07:02.733Z,98.50
2018-02-12T17:09:31.873Z,99.37
2018-02-12T17:12:01.042Z,95.20
2018-02-12T17:14:30.173Z,99.73
2018-02-12T17:16:59.323Z,90.73
2018-02-12T17:19:28.494Z,92.87
2018-02-12T17:21:57.635Z,93.27
2018-02-12T17:24:26.774Z,93.27
2018-02-12T17:26:56.289Z,96.80
2018-02-12T17:29:25.431Z,92.63
2018-02-12T17:31:54.601Z,97.20
2018-02-12T17:34:23.760Z,89.47
2018-02-12T17:36:53.098Z,90.87
2018-02-12T17:39:22.269Z,90.63
2018-02-12T17:41:51.442Z,90.30
2018-02-12T17:44:20.570Z,90.80
2018-02-12T17:46:49.708Z,91.13
2018-02-12T17:49:18.952Z,93.90
2018-02-12T17:51:48.053Z,97.30
2018-02-12T17:54:17.214Z,99.27
2018-02-12T17:56:46.388Z,100.50
2018-02-12T17:59:15.534Z,106.97
2018-02-12T18:01:44.678Z,107.17
2018-02-12T18:04:13.856Z,98.03
2018-02-12T18:06:42.996Z,97.00
2018-02-12T18:09:12.133Z,91.63
2018-02-12T18:11:41.663Z,86.87
2018-02-12T18:14:10.812Z,91.97
2018-02-12T18:16:39.946Z,89.50
2018-02-12T18:19:09.125Z,92.63
2018-02-12T18:21:38.261Z,91.47
2018-02-12T18:24:07.403Z,92.43
2018-02-12T18:26:36.575Z,99.53
2018-02-12T18:29:05.722Z,93.90
2018-02-12T18:31:34.903Z,99.00
2018-02-12T18:34:04.047Z,100.50
2018-02-12T18:36:33.213Z,100.17
2018-02-12T18:39:02.400Z,99.30
2018-02-12T18:41:31.543Z,102.80
2018-02-12T18:44:00.727Z,102.63
2018-02-12T18:46:29.897Z,104.10
2018-02-12T18:51:47.749Z,104.20
2018-02-12T18:54:16.892Z,108.90
2018-02-12T18:56:46.041Z,106.43
2018-02-12T18:59:15.236Z,103.30
2018-02-12T19:01:44.382Z,99.13
2018-02-12T19:04:13.530Z,98.23
2018-02-12T19:06:42.671Z,98.53
2018-02-12T19:09:11.805Z,97.97
2018-02-12T19:11:40.981Z,100.50
2018-02-12T19:14:10.117Z,98.27
2018-02-12T19:16:39.248Z,103.07
2018-02-12T19:19:08.756Z,98.97
2018-02-12T19:21:37.908Z,100.33
2018-02-12T19:24:07.065Z,102.13
2018-02-12T19:26:36.226Z,100.10
2018-02-12T19:29:05.362Z,99.83
2018-02-12T19:31:34.515Z,98.60
2018-02-12T19:34:03.697Z,100.83
2018-02-12T19:36:32.843Z,107.47
2018-02-12T19:39:01.984Z,108.50
2018-02-12T19:41:31.162Z,106.33
2018-02-12T19:44:00.309Z,114.03
2018-02-12T19:46:29.485Z,115.40
2018-02-12T19:48:58.656Z,114.17
2018-02-12T19:51:27.807Z,113.97
2018-02-12T19:53:56.954Z,116.83
2018-02-12T19:56:26.180Z,116.67
2018-02-12T19:58:55.328Z,111.23
2018-02-12T20:01:24.481Z,106.03
2018-02-12T20:03:53.655Z,108.77
2018-02-12T20:06:22.792Z,110.47
2018-02-12T20:08:51.949Z,111.60
2018-02-12T20:11:21.116Z,109.23
2018-02-12T20:13:50.262Z,101.60
2018-02-12T20:16:19.439Z,101.20
2018-02-12T20:18:48.613Z,99.87
2018-02-12T20:21:17.744Z,103.30
2018-02-12T20:23:46.886Z,107.57
2018-02-12T20:26:16.247Z,104.60
2018-02-12T20:28:45.406Z,104.67
2018-02-12T20:31:14.554Z,104.80
2018-02-12T20:33:43.741Z,105.03
2018-02-12T20:36:12.954Z,101.80
2018-02-12T20:38:42.132Z,100.37
2018-02-12T20:41:11.297Z,108.67
2018-02-12T20:43:40.433Z,116.00
2018-02-12T20:46:09.633Z,105.47
2018-02-12T20:48:38.801Z,113.03
2018-02-12T20:51:07.993Z,108.60
2018-02-12T20:53:37.145Z,103.73
2018-02-12T20:56:06.287Z,101.27
2018-02-12T20:58:35.448Z,106.73
2018-02-12T21:01:04.595Z,103.97
2018-02-12T21:03:33.730Z,104.80
2018-02-12T21:06:03.274Z,100.63
2018-02-12T21:08:32.409Z,98.13
2018-02-12T21:11:01.560Z,97.97
2018-02-12T21:13:30.735Z,105.70
2018-02-12T21:15:59.887Z,100.63
2018-02-12T21:18:29.044Z,97.40
2018-02-12T21:20:58.250Z,101.40
2018-02-12T21:23:27.401Z,107.97
2018-02-12T21:25:56.551Z,115.57
2018-02-12T21:28:25.725Z,106.57
2018-02-12T21:30:54.873Z,97.20
2018-02-12T21:33:24.089Z,104.27
2018-02-12T21:35:53.247Z,108.63
2018-02-12T21:38:22.405Z,120.67
2018-02-12T21:40:51.574Z,110.47
2018-02-12T21:43:20.722Z,103.60
2018-02-12T21:45:49.882Z,107.23
2018-02-12T21:48:19.057Z,108.83
2018-02-12T21:50:48.197Z,107.93
2018-02-12T21:53:17.334Z,101.63
2018-02-12T21:55:46.914Z,98.37
2018-02-12T21:58:16.051Z,97.17
2018-02-12T22:00:45.209Z,97.40
2018-02-12T22:03:14.385Z,104.10
2018-02-12T22:05:43.522Z,109.83
2018-02-12T22:08:12.669Z,112.50
2018-02-12T22:10:41.861Z,108.00
2018-02-12T22:13:11.005Z,105.87
2018-02-12T22:15:40.161Z,108.57
2018-02-12T22:18:09.326Z,110.97
2018-02-12T22:20:38.511Z,108.03
2018-02-12T22:23:07.655Z,104.57
2018-02-12T22:25:36.802Z,98.97
2018-02-12T22:28:05.988Z,111.00
2018-02-12T22:30:35.190Z,104.97
2018-02-12T22:33:04.369Z,106.73
2018-02-12T22:35:33.551Z,110.77
2018-02-12T22:38:02.717Z,108.60
2018-02-12T22:40:32.447Z,100.63
2018-02-12T22:43:01.619Z,99.30
2018-02-12T22:45:30.763Z,103.83
2018-02-12T22:47:59.940Z,106.70
2018-02-12T22:50:29.078Z,99.10
2018-02-12T22:52:58.220Z,101.40
2018-02-12T22:55:27.413Z,101.17
2018-02-12T22:57:56.546Z,107.07
2018-02-12T23:00:25.752Z,102.30
2018-02-12T23:02:54.970Z,103.90
2018-02-12T23:05:24.109Z,99.87
2018-02-12T23:07:53.304Z,106.17
2018-02-12T23:10:22.442Z,98.00
2018-02-12T23:12:51.582Z,101.67
2018-02-12T23:15:26.483Z,98.17
2018-02-12T23:17:55.630Z,104.17
2018-02-12T23:20:24.825Z,97.00
2018-02-12T23:22:54.026Z,103.67
2018-02-12T23:25:23.206Z,98.10
2018-02-12T23:27:52.336Z,96.33
2018-02-12T23:30:21.519Z,96.50
2018-02-12T23:32:50.654Z,92.87
2018-02-12T23:35:19.787Z,99.20
2018-02-12T23:37:49.309Z,99.93
2018-02-12T23:40:18.445Z,95.10
2018-02-12T23:42:47.605Z,97.80
2018-02-12T23:45:16.852Z,96.80
2018-02-12T23:47:46.006Z,100.97
2018-02-12T23:50:15.156Z,110.57
2018-02-12T23:52:44.351Z,101.17
2018-02-12T23:55:13.520Z,98.90
2018-02-12T23:57:42.662Z,104.20
